CYSM

Fort Smith Airport

Fort Smith, Northwest Territories, Canada
METAR CYSM 192200Z 30012KT 270V340 15SM BKN050 BKN170 03/M10 A3008 RMK SC5AC2 SLP201
Observed Flight Rules
Sep-19 @ 22:00 UTC (58 minutes ago) Visual Flight Rules
Wind Visibility Clouds
300° at 12 knots 15 miles
  • Broken at 5,000' AGL
  • Broken at 17,000' AGL
Temperatures Readings
Current 3°C / 37°F
Dewpoint -10°C / 14°F
Humidity 38%
Altimeter 30.08" Hg
Pressure 1020.1 hPa
Elevation 203
METAR CYSM 192200Z 30012KT 270V340 15SM BKN050 BKN170 03/M10 A3008 RMK SC5AC2 SLP201
Observed Flight Rules
Sep-19 @ 22:00 UTC
(58 minutes ago)
VFR
Wind Visibility
300° at 12 knots 15 miles
Clouds
  • Broken at 5,000' AGL
  • Broken at 17,000' AGL
Temperature Dewpoint
3°C / 37°F -10°C / 14°F
Humidity Altimeter Pressure
38% 30.08" Hg 1020.1 hPa